map of OHS home
OHS - Airport
Location
City:  Sohar, Oman
Near (Alt.):Majis
ICAO:OOSH
IATA:OHS

Details
Type:Airport (Aerodrome, Airfield)
Latitude:2423'10"N (24.386167)
Longitude:5637'32"E (56.625667)
Elevation:105 ft (32 m)
Variation:1.80E (WMM2015 magnetic declination)
0.05 annual change
Runways:1
Longest:13100 ft (3993 m), paved

Time
Time Zone:UTC+4
Local Time:

Weather
METAR:OOSH 161250Z AUTO 06007KT //// 31/24 Q1010 RMK 1007
TAF:OOSH 161100Z 1612/1718 06012KT 8000 FEW030 PROB30
TEMPO 1612/1618 BKN040
BECMG 1616/1618 VRB02KT
BECMG 1706/1708 07010KT PROB30
TEMPO 1710/1716 BKN040
BECMG 1716/1718 VRB02KT

Related Locations
Nearby:
Farthest:GMR: 11713 mi / 18850 km
Mangareva [Totegegie], Gambier Islands, PF

Find:

   beyond  
but within

Other Information
Maps:
NOTAMs:
Links:
Sources:

  
  • flag of Oman
  

Sectional Chart

Flight Planning
at skyvector.com

Satellite Image

Google Maps Satellite view

 

Copyright © 2004-2018 Karl L. Swartz. All rights reserved.
The Great Circle Mapper name and logo are trademarks of the Great Circle Mapper.
All other trademarks mentioned herein belong to their respective owners.
Please see credits for attibutions and further copyright information.

  Follow gcmap on Facebook Follow gcmap on Twitter Follow gcmap on Google+ GCmap on LinkedIn

hCard Microformat

Geo Microformat